sensor_id;sensor_type;location;lat;lon;timestamp;P1;durP1;ratioP1;P2;durP2;ratioP2
74674;SDS011;63200;48.810;12.352;2023-03-05T00:01:31;33.60;;;14.53;;
74674;SDS011;63200;48.810;12.352;2023-03-05T00:03:57;34.67;;;13.83;;
74674;SDS011;63200;48.810;12.352;2023-03-05T00:06:25;32.80;;;13.73;;
74674;SDS011;63200;48.810;12.352;2023-03-05T00:08:51;24.17;;;11.03;;
74674;SDS011;63200;48.810;12.352;2023-03-05T00:11:17;39.90;;;14.87;;
74674;SDS011;63200;48.810;12.352;2023-03-05T00:13:44;24.43;;;9.13;;
74674;SDS011;63200;48.810;12.352;2023-03-05T00:16:11;31.50;;;11.20;;
74674;SDS011;63200;48.810;12.352;2023-03-05T00:18:38;13.93;;;7.23;;
74674;SDS011;63200;48.810;12.352;2023-03-05T00:21:04;38.40;;;14.77;;
74674;SDS011;63200;48.810;12.352;2023-03-05T00:23:41;25.00;;;11.70;;
74674;SDS011;63200;48.810;12.352;2023-03-05T00:26:06;31.77;;;11.63;;
74674;SDS011;63200;48.810;12.352;2023-03-05T00:28:31;10.90;;;5.33;;
74674;SDS011;63200;48.810;12.352;2023-03-05T00:31:00;30.97;;;12.43;;
74674;SDS011;63200;48.810;12.352;2023-03-05T00:33:25;35.50;;;15.07;;
74674;SDS011;63200;48.810;12.352;2023-03-05T00:35:51;26.33;;;10.47;;
74674;SDS011;63200;48.810;12.352;2023-03-05T00:38:16;27.97;;;12.33;;
74674;SDS011;63200;48.810;12.352;2023-03-05T00:40:41;27.50;;;9.00;;
74674;SDS011;63200;48.810;12.352;2023-03-05T00:43:07;37.47;;;14.77;;
74674;SDS011;63200;48.810;12.352;2023-03-05T00:45:33;23.80;;;10.20;;
74674;SDS011;63200;48.810;12.352;2023-03-05T00:47:58;25.40;;;10.57;;
74674;SDS011;63200;48.810;12.352;2023-03-05T00:50:24;39.47;;;14.73;;
74674;SDS011;63200;48.810;12.352;2023-03-05T00:52:49;25.40;;;10.63;;
74674;SDS011;63200;48.810;12.352;2023-03-05T00:55:15;12.80;;;6.27;;
74674;SDS011;63200;48.810;12.352;2023-03-05T00:57:40;33.43;;;12.63;;
74674;SDS011;63200;48.810;12.352;2023-03-05T01:00:06;39.50;;;12.40;;
74674;SDS011;63200;48.810;12.352;2023-03-05T01:02:31;31.60;;;11.73;;
74674;SDS011;63200;48.810;12.352;2023-03-05T01:04:57;39.90;;;16.53;;
74674;SDS011;63200;48.810;12.352;2023-03-05T01:07:22;26.30;;;10.10;;
74674;SDS011;63200;48.810;12.352;2023-03-05T01:09:47;33.33;;;13.17;;
74674;SDS011;63200;48.810;12.352;2023-03-05T01:12:13;36.33;;;13.80;;
74674;SDS011;63200;48.810;12.352;2023-03-05T01:14:38;42.20;;;14.80;;
74674;SDS011;63200;48.810;12.352;2023-03-05T01:17:03;31.70;;;12.30;;
74674;SDS011;63200;48.810;12.352;2023-03-05T01:19:29;38.43;;;13.40;;
74674;SDS011;63200;48.810;12.352;2023-03-05T01:21:54;46.87;;;15.90;;
74674;SDS011;63200;48.810;12.352;2023-03-05T01:24:20;33.40;;;11.70;;
74674;SDS011;63200;48.810;12.352;2023-03-05T01:26:46;39.40;;;14.00;;
74674;SDS011;63200;48.810;12.352;2023-03-05T01:29:13;35.17;;;13.73;;
74674;SDS011;63200;48.810;12.352;2023-03-05T01:31:38;47.30;;;14.83;;
74674;SDS011;63200;48.810;12.352;2023-03-05T01:34:04;43.07;;;16.40;;
74674;SDS011;63200;48.810;12.352;2023-03-05T01:36:29;23.43;;;9.37;;
74674;SDS011;63200;48.810;12.352;2023-03-05T01:38:55;30.80;;;12.80;;
74674;SDS011;63200;48.810;12.352;2023-03-05T01:41:21;34.63;;;12.00;;
74674;SDS011;63200;48.810;12.352;2023-03-05T01:43:47;34.30;;;11.43;;
74674;SDS011;63200;48.810;12.352;2023-03-05T01:46:30;41.90;;;14.57;;
74674;SDS011;63200;48.810;12.352;2023-03-05T01:51:45;46.20;;;15.80;;
74674;SDS011;63200;48.810;12.352;2023-03-05T01:54:18;47.47;;;14.13;;
74674;SDS011;63200;48.810;12.352;2023-03-05T01:56:46;40.07;;;14.40;;
74674;SDS011;63200;48.810;12.352;2023-03-05T01:59:14;43.90;;;14.97;;
74674;SDS011;63200;48.810;12.352;2023-03-05T02:01:42;44.83;;;15.07;;
74674;SDS011;63200;48.810;12.352;2023-03-05T02:04:10;25.23;;;10.13;;
74674;SDS011;63200;48.810;12.352;2023-03-05T02:06:39;42.17;;;15.93;;
74674;SDS011;63200;48.810;12.352;2023-03-05T02:09:06;23.57;;;8.53;;
74674;SDS011;63200;48.810;12.352;2023-03-05T02:11:31;46.07;;;17.47;;
74674;SDS011;63200;48.810;12.352;2023-03-05T02:13:58;37.60;;;14.20;;
74674;SDS011;63200;48.810;12.352;2023-03-05T02:16:23;41.20;;;14.27;;
74674;SDS011;63200;48.810;12.352;2023-03-05T02:18:49;46.20;;;15.63;;
74674;SDS011;63200;48.810;12.352;2023-03-05T02:21:14;46.00;;;16.47;;
74674;SDS011;63200;48.810;12.352;2023-03-05T02:23:52;42.93;;;16.20;;
74674;SDS011;63200;48.810;12.352;2023-03-05T02:26:18;40.23;;;15.77;;
74674;SDS011;63200;48.810;12.352;2023-03-05T02:28:44;28.90;;;8.93;;
74674;SDS011;63200;48.810;12.352;2023-03-05T02:31:17;35.87;;;12.00;;
74674;SDS011;63200;48.810;12.352;2023-03-05T02:33:45;40.93;;;15.53;;
74674;SDS011;63200;48.810;12.352;2023-03-05T02:36:11;44.40;;;16.47;;
74674;SDS011;63200;48.810;12.352;2023-03-05T02:38:37;42.23;;;16.77;;
74674;SDS011;63200;48.810;12.352;2023-03-05T02:41:03;47.00;;;17.40;;
74674;SDS011;63200;48.810;12.352;2023-03-05T02:43:29;45.37;;;18.33;;
74674;SDS011;63200;48.810;12.352;2023-03-05T02:45:54;39.50;;;14.70;;
74674;SDS011;63200;48.810;12.352;2023-03-05T02:48:19;47.57;;;16.70;;
74674;SDS011;63200;48.810;12.352;2023-03-05T02:50:45;45.43;;;16.30;;
74674;SDS011;63200;48.810;12.352;2023-03-05T02:53:11;43.40;;;15.80;;
74674;SDS011;63200;48.810;12.352;2023-03-05T02:55:36;42.13;;;15.07;;
74674;SDS011;63200;48.810;12.352;2023-03-05T02:58:02;41.43;;;17.40;;
74674;SDS011;63200;48.810;12.352;2023-03-05T03:00:27;36.37;;;14.00;;
74674;SDS011;63200;48.810;12.352;2023-03-05T03:02:53;41.37;;;12.93;;
74674;SDS011;63200;48.810;12.352;2023-03-05T03:05:18;44.17;;;15.37;;
74674;SDS011;63200;48.810;12.352;2023-03-05T03:07:44;51.30;;;19.10;;
74674;SDS011;63200;48.810;12.352;2023-03-05T03:10:09;49.70;;;18.73;;
74674;SDS011;63200;48.810;12.352;2023-03-05T03:12:36;48.37;;;17.43;;
74674;SDS011;63200;48.810;12.352;2023-03-05T03:15:02;51.00;;;19.73;;
74674;SDS011;63200;48.810;12.352;2023-03-05T03:17:28;46.60;;;17.60;;
74674;SDS011;63200;48.810;12.352;2023-03-05T03:19:53;44.17;;;16.70;;
74674;SDS011;63200;48.810;12.352;2023-03-05T03:22:18;55.23;;;19.93;;
74674;SDS011;63200;48.810;12.352;2023-03-05T03:24:44;36.37;;;11.77;;
74674;SDS011;63200;48.810;12.352;2023-03-05T03:27:09;38.57;;;15.13;;
74674;SDS011;63200;48.810;12.352;2023-03-05T03:29:34;45.67;;;15.73;;
74674;SDS011;63200;48.810;12.352;2023-03-05T03:32:00;48.20;;;16.50;;
74674;SDS011;63200;48.810;12.352;2023-03-05T03:34:26;46.73;;;17.13;;
74674;SDS011;63200;48.810;12.352;2023-03-05T03:36:51;34.83;;;12.03;;
74674;SDS011;63200;48.810;12.352;2023-03-05T03:39:17;47.10;;;17.27;;
74674;SDS011;63200;48.810;12.352;2023-03-05T03:41:43;54.23;;;19.13;;
74674;SDS011;63200;48.810;12.352;2023-03-05T03:44:10;43.90;;;16.30;;
74674;SDS011;63200;48.810;12.352;2023-03-05T03:46:37;48.80;;;17.63;;
74674;SDS011;63200;48.810;12.352;2023-03-05T03:49:03;45.27;;;15.90;;
74674;SDS011;63200;48.810;12.352;2023-03-05T03:51:29;40.00;;;14.73;;
74674;SDS011;63200;48.810;12.352;2023-03-05T03:53:55;50.73;;;18.07;;
74674;SDS011;63200;48.810;12.352;2023-03-05T03:56:20;38.73;;;13.10;;
74674;SDS011;63200;48.810;12.352;2023-03-05T03:58:45;45.43;;;15.63;;
74674;SDS011;63200;48.810;12.352;2023-03-05T04:01:14;52.43;;;18.07;;
74674;SDS011;63200;48.810;12.352;2023-03-05T04:03:39;45.40;;;18.50;;
74674;SDS011;63200;48.810;12.352;2023-03-05T04:06:05;48.57;;;18.73;;
74674;SDS011;63200;48.810;12.352;2023-03-05T04:08:30;45.90;;;16.17;;
74674;SDS011;63200;48.810;12.352;2023-03-05T04:10:56;28.60;;;10.63;;
74674;SDS011;63200;48.810;12.352;2023-03-05T04:13:21;44.27;;;14.80;;
74674;SDS011;63200;48.810;12.352;2023-03-05T04:15:46;52.03;;;17.03;;
74674;SDS011;63200;48.810;12.352;2023-03-05T04:18:12;46.97;;;17.40;;
74674;SDS011;63200;48.810;12.352;2023-03-05T04:20:37;52.07;;;19.20;;
74674;SDS011;63200;48.810;12.352;2023-03-05T04:23:02;53.40;;;17.60;;
74674;SDS011;63200;48.810;12.352;2023-03-05T04:25:28;42.37;;;15.67;;
74674;SDS011;63200;48.810;12.352;2023-03-05T04:27:53;44.53;;;15.80;;
74674;SDS011;63200;48.810;12.352;2023-03-05T04:30:18;31.60;;;10.40;;
74674;SDS011;63200;48.810;12.352;2023-03-05T04:32:44;40.90;;;12.17;;
74674;SDS011;63200;48.810;12.352;2023-03-05T04:35:09;58.00;;;20.77;;
74674;SDS011;63200;48.810;12.352;2023-03-05T04:37:34;59.77;;;18.60;;
74674;SDS011;63200;48.810;12.352;2023-03-05T04:40:00;58.57;;;19.43;;
74674;SDS011;63200;48.810;12.352;2023-03-05T04:42:25;35.83;;;12.90;;
74674;SDS011;63200;48.810;12.352;2023-03-05T04:44:50;42.63;;;13.17;;
74674;SDS011;63200;48.810;12.352;2023-03-05T04:47:16;54.33;;;19.07;;
74674;SDS011;63200;48.810;12.352;2023-03-05T04:49:42;41.90;;;13.53;;
74674;SDS011;63200;48.810;12.352;2023-03-05T04:52:09;40.53;;;13.63;;
74674;SDS011;63200;48.810;12.352;2023-03-05T04:54:38;54.67;;;18.90;;
74674;SDS011;63200;48.810;12.352;2023-03-05T04:57:03;46.37;;;14.70;;
74674;SDS011;63200;48.810;12.352;2023-03-05T04:59:29;54.33;;;16.80;;
74674;SDS011;63200;48.810;12.352;2023-03-05T05:01:54;52.23;;;18.67;;
74674;SDS011;63200;48.810;12.352;2023-03-05T05:04:20;52.57;;;20.00;;
74674;SDS011;63200;48.810;12.352;2023-03-05T05:06:45;38.73;;;14.83;;
74674;SDS011;63200;48.810;12.352;2023-03-05T05:09:10;57.23;;;17.83;;
74674;SDS011;63200;48.810;12.352;2023-03-05T05:11:36;45.40;;;13.67;;
74674;SDS011;63200;48.810;12.352;2023-03-05T05:14:01;55.10;;;17.10;;
74674;SDS011;63200;48.810;12.352;2023-03-05T05:16:27;52.43;;;18.13;;
74674;SDS011;63200;48.810;12.352;2023-03-05T05:18:53;51.47;;;14.93;;
74674;SDS011;63200;48.810;12.352;2023-03-05T05:21:18;31.30;;;11.23;;
74674;SDS011;63200;48.810;12.352;2023-03-05T05:23:44;51.07;;;15.27;;
74674;SDS011;63200;48.810;12.352;2023-03-05T05:26:10;50.40;;;16.93;;
74674;SDS011;63200;48.810;12.352;2023-03-05T05:28:39;46.03;;;15.20;;
74674;SDS011;63200;48.810;12.352;2023-03-05T05:31:07;47.17;;;16.00;;
74674;SDS011;63200;48.810;12.352;2023-03-05T05:33:34;41.57;;;14.97;;
74674;SDS011;63200;48.810;12.352;2023-03-05T05:36:01;68.37;;;21.13;;
74674;SDS011;63200;48.810;12.352;2023-03-05T05:38:30;62.83;;;16.80;;
74674;SDS011;63200;48.810;12.352;2023-03-05T05:41:06;54.97;;;18.93;;
74674;SDS011;63200;48.810;12.352;2023-03-05T05:43:34;55.67;;;19.73;;
74674;SDS011;63200;48.810;12.352;2023-03-05T05:46:00;58.10;;;19.70;;
74674;SDS011;63200;48.810;12.352;2023-03-05T05:48:28;47.40;;;16.37;;
74674;SDS011;63200;48.810;12.352;2023-03-05T05:50:54;37.50;;;13.40;;
74674;SDS011;63200;48.810;12.352;2023-03-05T05:53:19;25.00;;;9.90;;
74674;SDS011;63200;48.810;12.352;2023-03-05T05:55:45;61.27;;;20.13;;
74674;SDS011;63200;48.810;12.352;2023-03-05T05:58:10;52.00;;;17.10;;
74674;SDS011;63200;48.810;12.352;2023-03-05T06:00:36;48.13;;;15.63;;
74674;SDS011;63200;48.810;12.352;2023-03-05T06:03:02;53.27;;;12.30;;
74674;SDS011;63200;48.810;12.352;2023-03-05T06:05:28;55.73;;;19.83;;
74674;SDS011;63200;48.810;12.352;2023-03-05T06:07:53;55.03;;;19.17;;
74674;SDS011;63200;48.810;12.352;2023-03-05T06:10:18;58.40;;;20.37;;
74674;SDS011;63200;48.810;12.352;2023-03-05T06:12:44;61.07;;;19.57;;
74674;SDS011;63200;48.810;12.352;2023-03-05T06:15:09;55.13;;;17.73;;
74674;SDS011;63200;48.810;12.352;2023-03-05T06:17:34;58.43;;;19.80;;
74674;SDS011;63200;48.810;12.352;2023-03-05T06:20:00;50.93;;;18.40;;
74674;SDS011;63200;48.810;12.352;2023-03-05T06:22:25;60.80;;;21.07;;
74674;SDS011;63200;48.810;12.352;2023-03-05T06:24:51;60.27;;;20.77;;
74674;SDS011;63200;48.810;12.352;2023-03-05T06:27:16;44.33;;;16.80;;
74674;SDS011;63200;48.810;12.352;2023-03-05T06:29:42;46.93;;;17.20;;
74674;SDS011;63200;48.810;12.352;2023-03-05T06:32:07;49.90;;;16.83;;
74674;SDS011;63200;48.810;12.352;2023-03-05T06:34:32;54.17;;;19.30;;
74674;SDS011;63200;48.810;12.352;2023-03-05T06:36:58;54.97;;;17.10;;
74674;SDS011;63200;48.810;12.352;2023-03-05T06:39:23;51.10;;;17.93;;
74674;SDS011;63200;48.810;12.352;2023-03-05T06:41:51;51.83;;;17.00;;
74674;SDS011;63200;48.810;12.352;2023-03-05T06:44:17;47.57;;;18.37;;
74674;SDS011;63200;48.810;12.352;2023-03-05T06:46:42;51.97;;;19.20;;
74674;SDS011;63200;48.810;12.352;2023-03-05T06:49:08;54.07;;;18.60;;
74674;SDS011;63200;48.810;12.352;2023-03-05T06:51:35;56.00;;;18.33;;
74674;SDS011;63200;48.810;12.352;2023-03-05T06:54:04;39.83;;;12.83;;
74674;SDS011;63200;48.810;12.352;2023-03-05T06:56:31;45.93;;;16.03;;
74674;SDS011;63200;48.810;12.352;2023-03-05T06:58:58;57.40;;;20.80;;
74674;SDS011;63200;48.810;12.352;2023-03-05T07:01:24;35.27;;;12.67;;
74674;SDS011;63200;48.810;12.352;2023-03-05T07:03:50;57.73;;;19.97;;
74674;SDS011;63200;48.810;12.352;2023-03-05T07:06:17;45.40;;;16.67;;
74674;SDS011;63200;48.810;12.352;2023-03-05T07:08:42;44.47;;;11.37;;
74674;SDS011;63200;48.810;12.352;2023-03-05T07:11:14;55.33;;;19.13;;
74674;SDS011;63200;48.810;12.352;2023-03-05T07:13:42;49.27;;;17.73;;
74674;SDS011;63200;48.810;12.352;2023-03-05T07:16:09;57.67;;;20.33;;
74674;SDS011;63200;48.810;12.352;2023-03-05T07:18:37;51.70;;;18.80;;
74674;SDS011;63200;48.810;12.352;2023-03-05T07:21:03;52.40;;;19.67;;
74674;SDS011;63200;48.810;12.352;2023-03-05T07:23:30;51.73;;;16.87;;
74674;SDS011;63200;48.810;12.352;2023-03-05T07:25:55;48.92;;;17.17;;
74674;SDS011;63200;48.810;12.352;2023-03-05T07:28:20;54.53;;;19.13;;
74674;SDS011;63200;48.810;12.352;2023-03-05T07:30:59;49.63;;;17.97;;
74674;SDS011;63200;48.810;12.352;2023-03-05T07:33:27;52.73;;;16.13;;
74674;SDS011;63200;48.810;12.352;2023-03-05T07:35:53;53.50;;;18.87;;
74674;SDS011;63200;48.810;12.352;2023-03-05T07:38:18;53.67;;;18.37;;
74674;SDS011;63200;48.810;12.352;2023-03-05T07:40:44;41.03;;;14.30;;
74674;SDS011;63200;48.810;12.352;2023-03-05T07:43:09;54.40;;;19.27;;
74674;SDS011;63200;48.810;12.352;2023-03-05T07:45:37;35.80;;;13.50;;
74674;SDS011;63200;48.810;12.352;2023-03-05T07:48:04;31.33;;;11.43;;
74674;SDS011;63200;48.810;12.352;2023-03-05T07:50:29;48.47;;;17.47;;
74674;SDS011;63200;48.810;12.352;2023-03-05T07:52:56;46.20;;;16.23;;
74674;SDS011;63200;48.810;12.352;2023-03-05T07:55:22;50.43;;;15.83;;
74674;SDS011;63200;48.810;12.352;2023-03-05T07:57:47;35.23;;;12.47;;
74674;SDS011;63200;48.810;12.352;2023-03-05T08:00:13;35.33;;;12.90;;
74674;SDS011;63200;48.810;12.352;2023-03-05T08:02:38;44.53;;;14.73;;
74674;SDS011;63200;48.810;12.352;2023-03-05T08:05:04;49.20;;;15.93;;
74674;SDS011;63200;48.810;12.352;2023-03-05T08:07:29;47.13;;;16.87;;
74674;SDS011;63200;48.810;12.352;2023-03-05T08:09:55;63.73;;;24.77;;
74674;SDS011;63200;48.810;12.352;2023-03-05T08:12:20;43.97;;;15.93;;
74674;SDS011;63200;48.810;12.352;2023-03-05T08:14:47;48.60;;;16.00;;
74674;SDS011;63200;48.810;12.352;2023-03-05T08:17:12;45.10;;;16.53;;
74674;SDS011;63200;48.810;12.352;2023-03-05T08:19:37;51.20;;;15.67;;
74674;SDS011;63200;48.810;12.352;2023-03-05T08:22:02;47.67;;;15.13;;
74674;SDS011;63200;48.810;12.352;2023-03-05T08:24:28;54.13;;;18.47;;
74674;SDS011;63200;48.810;12.352;2023-03-05T08:26:54;49.97;;;16.77;;
74674;SDS011;63200;48.810;12.352;2023-03-05T08:29:21;42.57;;;14.60;;
74674;SDS011;63200;48.810;12.352;2023-03-05T08:31:46;52.20;;;18.13;;
74674;SDS011;63200;48.810;12.352;2023-03-05T08:34:12;27.58;;;10.35;;
74674;SDS011;63200;48.810;12.352;2023-03-05T08:36:37;50.33;;;16.93;;
74674;SDS011;63200;48.810;12.352;2023-03-05T08:39:03;44.03;;;17.15;;
74674;SDS011;63200;48.810;12.352;2023-03-05T08:41:30;51.15;;;19.20;;
74674;SDS011;63200;48.810;12.352;2023-03-05T08:43:56;36.87;;;12.20;;
74674;SDS011;63200;48.810;12.352;2023-03-05T08:46:21;43.45;;;14.95;;
74674;SDS011;63200;48.810;12.352;2023-03-05T08:48:47;54.93;;;18.50;;
74674;SDS011;63200;48.810;12.352;2023-03-05T08:51:13;47.53;;;16.83;;
74674;SDS011;63200;48.810;12.352;2023-03-05T08:53:44;57.67;;;17.73;;
74674;SDS011;63200;48.810;12.352;2023-03-05T08:56:10;34.97;;;13.05;;
74674;SDS011;63200;48.810;12.352;2023-03-05T08:58:35;45.05;;;14.45;;
74674;SDS011;63200;48.810;12.352;2023-03-05T09:01:01;46.75;;;18.00;;
74674;SDS011;63200;48.810;12.352;2023-03-05T09:03:27;31.42;;;13.02;;
74674;SDS011;63200;48.810;12.352;2023-03-05T09:05:52;34.97;;;13.35;;
74674;SDS011;63200;48.810;12.352;2023-03-05T09:08:17;47.20;;;15.13;;
74674;SDS011;63200;48.810;12.352;2023-03-05T09:10:43;47.10;;;14.48;;
74674;SDS011;63200;48.810;12.352;2023-03-05T09:13:10;42.22;;;15.88;;
74674;SDS011;63200;48.810;12.352;2023-03-05T09:15:36;37.17;;;14.32;;
74674;SDS011;63200;48.810;12.352;2023-03-05T09:18:01;41.28;;;12.38;;
74674;SDS011;63200;48.810;12.352;2023-03-05T09:20:27;45.15;;;14.80;;
74674;SDS011;63200;48.810;12.352;2023-03-05T09:22:52;41.75;;;16.23;;
74674;SDS011;63200;48.810;12.352;2023-03-05T09:25:18;28.00;;;9.48;;
74674;SDS011;63200;48.810;12.352;2023-03-05T09:27:43;41.53;;;14.93;;
74674;SDS011;63200;48.810;12.352;2023-03-05T09:30:10;41.15;;;16.13;;
74674;SDS011;63200;48.810;12.352;2023-03-05T09:32:36;41.63;;;15.48;;
74674;SDS011;63200;48.810;12.352;2023-03-05T09:35:02;36.80;;;13.53;;
74674;SDS011;63200;48.810;12.352;2023-03-05T09:37:27;33.20;;;13.38;;
74674;SDS011;63200;48.810;12.352;2023-03-05T09:39:53;41.10;;;14.05;;
74674;SDS011;63200;48.810;12.352;2023-03-05T09:42:34;50.78;;;16.60;;
74674;SDS011;63200;48.810;12.352;2023-03-05T09:45:29;42.60;;;13.43;;
74674;SDS011;63200;48.810;12.352;2023-03-05T09:48:19;42.67;;;15.07;;
74674;SDS011;63200;48.810;12.352;2023-03-05T09:50:53;39.45;;;11.50;;
74674;SDS011;63200;48.810;12.352;2023-03-05T09:58:56;38.00;;;14.23;;
74674;SDS011;63200;48.810;12.352;2023-03-05T10:01:36;35.97;;;14.25;;
74674;SDS011;63200;48.810;12.352;2023-03-05T10:04:10;33.97;;;12.32;;
74674;SDS011;63200;48.810;12.352;2023-03-05T10:06:46;39.47;;;11.68;;
74674;SDS011;63200;48.810;12.352;2023-03-05T10:09:27;11.38;;;6.05;;
74674;SDS011;63200;48.810;12.352;2023-03-05T10:14:45;30.27;;;9.15;;
74674;SDS011;63200;48.810;12.352;2023-03-05T10:22:30;22.15;;;7.20;;
74674;SDS011;63200;48.810;12.352;2023-03-05T10:30:35;29.42;;;9.18;;
74674;SDS011;63200;48.810;12.352;2023-03-05T10:41:38;25.85;;;9.27;;
74674;SDS011;63200;48.810;12.352;2023-03-05T10:44:31;32.17;;;10.43;;
74674;SDS011;63200;48.810;12.352;2023-03-05T10:47:24;28.05;;;10.43;;
74674;SDS011;63200;48.810;12.352;2023-03-05T10:49:59;40.38;;;14.18;;
74674;SDS011;63200;48.810;12.352;2023-03-05T10:55:10;39.88;;;14.65;;
74674;SDS011;63200;48.810;12.352;2023-03-05T10:57:39;38.95;;;13.30;;
74674;SDS011;63200;48.810;12.352;2023-03-05T11:02:29;39.53;;;14.27;;
74674;SDS011;63200;48.810;12.352;2023-03-05T11:04:55;44.28;;;13.77;;
74674;SDS011;63200;48.810;12.352;2023-03-05T11:12:40;41.70;;;14.05;;
74674;SDS011;63200;48.810;12.352;2023-03-05T11:20:28;28.25;;;11.02;;
74674;SDS011;63200;48.810;12.352;2023-03-05T11:28:24;33.83;;;12.57;;
74674;SDS011;63200;48.810;12.352;2023-03-05T11:31:18;36.33;;;12.63;;
74674;SDS011;63200;48.810;12.352;2023-03-05T11:33:56;36.30;;;14.68;;
74674;SDS011;63200;48.810;12.352;2023-03-05T11:36:24;30.63;;;11.93;;
74674;SDS011;63200;48.810;12.352;2023-03-05T11:38:59;35.47;;;12.25;;
74674;SDS011;63200;48.810;12.352;2023-03-05T11:41:40;36.00;;;13.63;;
74674;SDS011;63200;48.810;12.352;2023-03-05T11:44:27;17.83;;;8.30;;
74674;SDS011;63200;48.810;12.352;2023-03-05T11:49:44;32.80;;;12.18;;
74674;SDS011;63200;48.810;12.352;2023-03-05T11:52:29;21.23;;;9.07;;
74674;SDS011;63200;48.810;12.352;2023-03-05T11:57:27;32.33;;;11.82;;
74674;SDS011;63200;48.810;12.352;2023-03-05T11:59:59;30.33;;;10.90;;
74674;SDS011;63200;48.810;12.352;2023-03-05T12:02:32;25.45;;;10.10;;
74674;SDS011;63200;48.810;12.352;2023-03-05T12:04:57;37.47;;;13.48;;
74674;SDS011;63200;48.810;12.352;2023-03-05T12:07:36;28.38;;;11.25;;
74674;SDS011;63200;48.810;12.352;2023-03-05T12:10:05;34.20;;;11.70;;
74674;SDS011;63200;48.810;12.352;2023-03-05T12:18:24;34.70;;;12.50;;
74674;SDS011;63200;48.810;12.352;2023-03-05T12:23:45;33.65;;;12.43;;
74674;SDS011;63200;48.810;12.352;2023-03-05T12:26:15;41.50;;;14.30;;
74674;SDS011;63200;48.810;12.352;2023-03-05T12:31:27;29.77;;;11.15;;
74674;SDS011;63200;48.810;12.352;2023-03-05T12:33:59;25.90;;;9.43;;
74674;SDS011;63200;48.810;12.352;2023-03-05T12:37:00;28.65;;;12.18;;
74674;SDS011;63200;48.810;12.352;2023-03-05T12:47:45;32.45;;;14.05;;
74674;SDS011;63200;48.810;12.352;2023-03-05T12:53:10;35.53;;;11.60;;
74674;SDS011;63200;48.810;12.352;2023-03-05T12:55:37;34.53;;;12.98;;
74674;SDS011;63200;48.810;12.352;2023-03-05T12:58:23;18.95;;;8.63;;
74674;SDS011;63200;48.810;12.352;2023-03-05T13:03:28;17.25;;;6.15;;
74674;SDS011;63200;48.810;12.352;2023-03-05T13:05:57;16.55;;;7.65;;
74674;SDS011;63200;48.810;12.352;2023-03-05T13:08:25;37.28;;;11.50;;
74674;SDS011;63200;48.810;12.352;2023-03-05T13:13:29;24.08;;;9.80;;
74674;SDS011;63200;48.810;12.352;2023-03-05T13:15:58;25.60;;;9.80;;
74674;SDS011;63200;48.810;12.352;2023-03-05T13:21:07;19.85;;;6.72;;
74674;SDS011;63200;48.810;12.352;2023-03-05T13:23:37;24.55;;;9.90;;
74674;SDS011;63200;48.810;12.352;2023-03-05T13:26:12;21.60;;;7.65;;
74674;SDS011;63200;48.810;12.352;2023-03-05T13:28:39;30.42;;;12.30;;
74674;SDS011;63200;48.810;12.352;2023-03-05T13:31:16;16.20;;;6.75;;
74674;SDS011;63200;48.810;12.352;2023-03-05T13:33:56;33.58;;;12.48;;
74674;SDS011;63200;48.810;12.352;2023-03-05T13:36:31;36.83;;;12.55;;
74674;SDS011;63200;48.810;12.352;2023-03-05T13:38:57;31.13;;;12.32;;
74674;SDS011;63200;48.810;12.352;2023-03-05T13:41:26;35.85;;;12.93;;
74674;SDS011;63200;48.810;12.352;2023-03-05T13:43:59;31.45;;;12.15;;
74674;SDS011;63200;48.810;12.352;2023-03-05T13:46:27;32.17;;;11.23;;
74674;SDS011;63200;48.810;12.352;2023-03-05T13:51:48;24.48;;;8.10;;
74674;SDS011;63200;48.810;12.352;2023-03-05T13:54:16;17.30;;;7.55;;
74674;SDS011;63200;48.810;12.352;2023-03-05T13:56:52;27.27;;;9.25;;
74674;SDS011;63200;48.810;12.352;2023-03-05T13:59:23;24.15;;;7.78;;
74674;SDS011;63200;48.810;12.352;2023-03-05T14:01:50;20.05;;;7.57;;
74674;SDS011;63200;48.810;12.352;2023-03-05T14:04:18;13.60;;;5.82;;
74674;SDS011;63200;48.810;12.352;2023-03-05T14:11:52;16.30;;;6.78;;
74674;SDS011;63200;48.810;12.352;2023-03-05T14:14:20;16.67;;;6.93;;
74674;SDS011;63200;48.810;12.352;2023-03-05T14:16:47;15.43;;;5.85;;
74674;SDS011;63200;48.810;12.352;2023-03-05T14:21:59;11.63;;;4.78;;
74674;SDS011;63200;48.810;12.352;2023-03-05T14:24:25;7.97;;;4.63;;
74674;SDS011;63200;48.810;12.352;2023-03-05T14:26:55;8.07;;;4.03;;
74674;SDS011;63200;48.810;12.352;2023-03-05T14:29:23;18.85;;;7.03;;
74674;SDS011;63200;48.810;12.352;2023-03-05T14:31:51;8.43;;;4.03;;
74674;SDS011;63200;48.810;12.352;2023-03-05T14:34:26;12.57;;;5.47;;
74674;SDS011;63200;48.810;12.352;2023-03-05T14:36:55;11.73;;;5.68;;
74674;SDS011;63200;48.810;12.352;2023-03-05T14:39:39;13.73;;;5.28;;
74674;SDS011;63200;48.810;12.352;2023-03-05T14:44:53;7.45;;;3.53;;
74674;SDS011;63200;48.810;12.352;2023-03-05T14:47:23;3.13;;;2.20;;
74674;SDS011;63200;48.810;12.352;2023-03-05T14:49:49;11.50;;;3.13;;
74674;SDS011;63200;48.810;12.352;2023-03-05T14:52:15;5.80;;;2.50;;
74674;SDS011;63200;48.810;12.352;2023-03-05T14:54:42;6.90;;;2.63;;
74674;SDS011;63200;48.810;12.352;2023-03-05T14:57:12;6.90;;;2.63;;
74674;SDS011;63200;48.810;12.352;2023-03-05T14:59:40;6.80;;;2.47;;
74674;SDS011;63200;48.810;12.352;2023-03-05T15:02:11;9.70;;;4.13;;
74674;SDS011;63200;48.810;12.352;2023-03-05T15:04:42;8.70;;;3.40;;
74674;SDS011;63200;48.810;12.352;2023-03-05T15:07:11;6.40;;;3.60;;
74674;SDS011;63200;48.810;12.352;2023-03-05T15:09:41;6.47;;;3.03;;
74674;SDS011;63200;48.810;12.352;2023-03-05T15:12:06;3.90;;;2.30;;
74674;SDS011;63200;48.810;12.352;2023-03-05T15:14:33;5.00;;;2.27;;
74674;SDS011;63200;48.810;12.352;2023-03-05T15:16:58;3.60;;;3.07;;
74674;SDS011;63200;48.810;12.352;2023-03-05T15:19:23;3.27;;;2.53;;
74674;SDS011;63200;48.810;12.352;2023-03-05T15:21:49;8.20;;;3.83;;
74674;SDS011;63200;48.810;12.352;2023-03-05T15:24:14;7.07;;;3.30;;
74674;SDS011;63200;48.810;12.352;2023-03-05T15:26:39;7.63;;;2.67;;
74674;SDS011;63200;48.810;12.352;2023-03-05T15:29:05;5.88;;;3.50;;
74674;SDS011;63200;48.810;12.352;2023-03-05T15:31:30;5.43;;;3.73;;
74674;SDS011;63200;48.810;12.352;2023-03-05T15:34:02;8.07;;;4.37;;
74674;SDS011;63200;48.810;12.352;2023-03-05T15:36:27;7.60;;;3.70;;
74674;SDS011;63200;48.810;12.352;2023-03-05T15:38:52;7.38;;;3.25;;
74674;SDS011;63200;48.810;12.352;2023-03-05T15:41:17;8.50;;;4.00;;
74674;SDS011;63200;48.810;12.352;2023-03-05T15:43:43;8.77;;;4.75;;
74674;SDS011;63200;48.810;12.352;2023-03-05T15:46:08;11.25;;;4.53;;
74674;SDS011;63200;48.810;12.352;2023-03-05T15:48:33;10.18;;;4.85;;
74674;SDS011;63200;48.810;12.352;2023-03-05T15:50:59;9.65;;;3.95;;
74674;SDS011;63200;48.810;12.352;2023-03-05T15:53:25;13.05;;;4.35;;
74674;SDS011;63200;48.810;12.352;2023-03-05T15:55:51;11.18;;;5.72;;
74674;SDS011;63200;48.810;12.352;2023-03-05T15:58:16;10.55;;;4.53;;